sensor_id;sensor_type;location;lat;lon;timestamp;pressure;altitude;pressure_sealevel;temperature;humidity
36788;BME280;22738;45.560;9.434;2023-02-12T00:01:18;101430.97;;;2.42;100.00
36788;BME280;22738;45.560;9.434;2023-02-12T00:08:00;101435.19;;;2.53;100.00
36788;BME280;22738;45.560;9.434;2023-02-12T00:14:41;101447.94;;;2.59;100.00
36788;BME280;22738;45.560;9.434;2023-02-12T00:21:23;101432.00;;;2.09;100.00
36788;BME280;22738;45.560;9.434;2023-02-12T00:28:04;101433.59;;;2.28;100.00
36788;BME280;22738;45.560;9.434;2023-02-12T00:34:46;101431.88;;;2.36;100.00
36788;BME280;22738;45.560;9.434;2023-02-12T00:41:27;101435.38;;;2.11;100.00
36788;BME280;22738;45.560;9.434;2023-02-12T00:48:08;101418.38;;;2.04;100.00
36788;BME280;22738;45.560;9.434;2023-02-12T00:54:49;101425.19;;;2.02;100.00
36788;BME280;22738;45.560;9.434;2023-02-12T01:01:31;101426.88;;;2.09;100.00
36788;BME280;22738;45.560;9.434;2023-02-12T01:08:13;101413.94;;;2.39;100.00
36788;BME280;22738;45.560;9.434;2023-02-12T01:14:54;101438.56;;;2.55;100.00
36788;BME280;22738;45.560;9.434;2023-02-12T01:21:35;101433.47;;;2.58;100.00
36788;BME280;22738;45.560;9.434;2023-02-12T01:28:16;101432.72;;;2.35;100.00
36788;BME280;22738;45.560;9.434;2023-02-12T01:34:59;101428.44;;;2.34;100.00
36788;BME280;22738;45.560;9.434;2023-02-12T01:41:43;101429.47;;;1.94;100.00
36788;BME280;22738;45.560;9.434;2023-02-12T01:48:28;101421.00;;;1.66;100.00
36788;BME280;22738;45.560;9.434;2023-02-12T01:55:10;101411.69;;;1.42;100.00
36788;BME280;22738;45.560;9.434;2023-02-12T02:01:52;101401.50;;;1.12;100.00
36788;BME280;22738;45.560;9.434;2023-02-12T02:08:35;101387.88;;;1.25;100.00
36788;BME280;22738;45.560;9.434;2023-02-12T02:15:16;101397.25;;;1.34;100.00
36788;BME280;22738;45.560;9.434;2023-02-12T02:22:15;101393.84;;;1.03;100.00
36788;BME280;22738;45.560;9.434;2023-02-12T02:29:34;101382.78;;;1.19;100.00
36788;BME280;22738;45.560;9.434;2023-02-12T02:36:33;101364.94;;;1.04;100.00
36788;BME280;22738;45.560;9.434;2023-02-12T02:43:19;101367.47;;;0.74;100.00
36788;BME280;22738;45.560;9.434;2023-02-12T02:50:08;101352.16;;;1.01;100.00
36788;BME280;22738;45.560;9.434;2023-02-12T02:56:54;101348.72;;;1.14;100.00
36788;BME280;22738;45.560;9.434;2023-02-12T03:10:28;101335.13;;;0.94;100.00
36788;BME280;22738;45.560;9.434;2023-02-12T03:17:24;101339.41;;;0.82;100.00
36788;BME280;22738;45.560;9.434;2023-02-12T03:45:07;101344.50;;;0.65;100.00
36788;BME280;22738;45.560;9.434;2023-02-12T03:51:49;101340.25;;;0.79;100.00
36788;BME280;22738;45.560;9.434;2023-02-12T03:58:33;101350.41;;;0.46;100.00
36788;BME280;22738;45.560;9.434;2023-02-12T04:18:49;101347.91;;;0.65;100.00
36788;BME280;22738;45.560;9.434;2023-02-12T04:32:24;101351.31;;;0.58;100.00
36788;BME280;22738;45.560;9.434;2023-02-12T04:39:11;101353.78;;;0.33;100.00
36788;BME280;22738;45.560;9.434;2023-02-12T04:45:55;101360.59;;;0.37;100.00
36788;BME280;22738;45.560;9.434;2023-02-12T04:52:36;101360.63;;;0.43;100.00
36788;BME280;22738;45.560;9.434;2023-02-12T04:59:17;101355.50;;;0.31;100.00
36788;BME280;22738;45.560;9.434;2023-02-12T05:06:05;101347.00;;;0.29;100.00
36788;BME280;22738;45.560;9.434;2023-02-12T05:12:47;101344.44;;;0.20;100.00
36788;BME280;22738;45.560;9.434;2023-02-12T05:19:28;101348.66;;;0.21;100.00
36788;BME280;22738;45.560;9.434;2023-02-12T05:26:14;101335.03;;;0.10;100.00
36788;BME280;22738;45.560;9.434;2023-02-12T05:32:56;101324.88;;;0.16;100.00
36788;BME280;22738;45.560;9.434;2023-02-12T05:39:37;101321.44;;;0.02;100.00
36788;BME280;22738;45.560;9.434;2023-02-12T05:46:19;101324.81;;;0.00;100.00
36788;BME280;22738;45.560;9.434;2023-02-12T05:53:01;101325.69;;;0.06;100.00
36788;BME280;22738;45.560;9.434;2023-02-12T05:59:42;101336.66;;;-0.14;100.00
36788;BME280;22738;45.560;9.434;2023-02-12T06:06:25;101340.09;;;-0.06;100.00
36788;BME280;22738;45.560;9.434;2023-02-12T06:13:06;101342.69;;;0.10;100.00
36788;BME280;22738;45.560;9.434;2023-02-12T06:19:47;101343.56;;;0.15;100.00
36788;BME280;22738;45.560;9.434;2023-02-12T06:26:28;101341.88;;;0.14;100.00
36788;BME280;22738;45.560;9.434;2023-02-12T06:33:10;101349.47;;;0.03;100.00
36788;BME280;22738;45.560;9.434;2023-02-12T06:39:50;101352.00;;;0.02;100.00
36788;BME280;22738;45.560;9.434;2023-02-12T06:46:32;101366.47;;;-0.01;100.00
36788;BME280;22738;45.560;9.434;2023-02-12T06:53:13;101381.66;;;-0.19;100.00
36788;BME280;22738;45.560;9.434;2023-02-12T06:59:54;101397.94;;;0.14;100.00
36788;BME280;22738;45.560;9.434;2023-02-12T07:06:35;101409.88;;;0.33;100.00
36788;BME280;22738;45.560;9.434;2023-02-12T07:13:16;101405.75;;;0.73;100.00
36788;BME280;22738;45.560;9.434;2023-02-12T07:19:57;101414.25;;;1.05;100.00
36788;BME280;22738;45.560;9.434;2023-02-12T07:26:39;101416.81;;;1.21;100.00
36788;BME280;22738;45.560;9.434;2023-02-12T07:33:20;101398.88;;;1.62;100.00
36788;BME280;22738;45.560;9.434;2023-02-12T07:40:01;101395.28;;;2.17;100.00
36788;BME280;22738;45.560;9.434;2023-02-12T07:46:45;101418.97;;;2.56;100.00
36788;BME280;22738;45.560;9.434;2023-02-12T07:53:27;101425.91;;;4.28;100.00
36788;BME280;22738;45.560;9.434;2023-02-12T08:00:08;101424.16;;;5.91;100.00
36788;BME280;22738;45.560;9.434;2023-02-12T08:06:54;101442.66;;;11.21;83.90
36788;BME280;22738;45.560;9.434;2023-02-12T08:13:36;101453.97;;;14.33;53.29
36788;BME280;22738;45.560;9.434;2023-02-12T08:20:22;101442.69;;;14.79;50.00
36788;BME280;22738;45.560;9.434;2023-02-12T08:27:09;101465.59;;;15.80;45.33
36788;BME280;22738;45.560;9.434;2023-02-12T08:33:51;101465.72;;;16.63;43.07
36788;BME280;22738;45.560;9.434;2023-02-12T08:40:33;101476.13;;;17.84;38.75
36788;BME280;22738;45.560;9.434;2023-02-12T08:47:14;101487.03;;;18.16;38.98
36788;BME280;22738;45.560;9.434;2023-02-12T08:53:57;101494.56;;;18.71;36.62
36788;BME280;22738;45.560;9.434;2023-02-12T09:00:39;101488.50;;;19.17;36.61
36788;BME280;22738;45.560;9.434;2023-02-12T09:07:20;101489.34;;;18.45;35.65
36788;BME280;22738;45.560;9.434;2023-02-12T09:14:05;101489.09;;;16.10;39.57
36788;BME280;22738;45.560;9.434;2023-02-12T09:20:47;101487.69;;;14.84;43.13
36788;BME280;22738;45.560;9.434;2023-02-12T09:27:28;101502.75;;;14.13;46.19
36788;BME280;22738;45.560;9.434;2023-02-12T09:34:11;101497.47;;;13.65;45.72
36788;BME280;22738;45.560;9.434;2023-02-12T09:54:53;101519.97;;;13.66;46.45
36788;BME280;22738;45.560;9.434;2023-02-12T10:01:34;101516.16;;;13.73;46.56
36788;BME280;22738;45.560;9.434;2023-02-12T10:16:00;101516.91;;;14.09;46.62
36788;BME280;22738;45.560;9.434;2023-02-12T10:30:00;101514.91;;;14.47;47.76
36788;BME280;22738;45.560;9.434;2023-02-12T10:36:44;101503.34;;;14.36;45.75
36788;BME280;22738;45.560;9.434;2023-02-12T10:43:26;101513.25;;;14.46;45.45
36788;BME280;22738;45.560;9.434;2023-02-12T10:57:29;101500.19;;;14.29;43.27
36788;BME280;22738;45.560;9.434;2023-02-12T11:04:23;101488.06;;;13.95;43.05
36788;BME280;22738;45.560;9.434;2023-02-12T11:11:17;101487.47;;;13.73;42.33
36788;BME280;22738;45.560;9.434;2023-02-12T11:18:01;101480.25;;;13.61;42.74
36788;BME280;22738;45.560;9.434;2023-02-12T11:24:45;101481.34;;;13.74;44.24
36788;BME280;22738;45.560;9.434;2023-02-12T11:31:31;101469.84;;;13.61;44.04
36788;BME280;22738;45.560;9.434;2023-02-12T11:38:22;101463.41;;;13.51;45.28
36788;BME280;22738;45.560;9.434;2023-02-12T11:45:03;101453.00;;;13.51;44.15
36788;BME280;22738;45.560;9.434;2023-02-12T11:51:46;101442.34;;;13.38;43.92
36788;BME280;22738;45.560;9.434;2023-02-12T11:58:28;101440.28;;;13.28;44.43
36788;BME280;22738;45.560;9.434;2023-02-12T12:05:17;101430.53;;;13.31;44.70
36788;BME280;22738;45.560;9.434;2023-02-12T12:19:37;101419.28;;;13.31;44.63
36788;BME280;22738;45.560;9.434;2023-02-12T12:26:34;101427.34;;;13.61;42.74
36788;BME280;22738;45.560;9.434;2023-02-12T12:33:25;101414.84;;;13.50;44.88
36788;BME280;22738;45.560;9.434;2023-02-12T13:00:59;101405.78;;;13.57;43.21
36788;BME280;22738;45.560;9.434;2023-02-12T13:21:58;101396.78;;;14.12;41.67
36788;BME280;22738;45.560;9.434;2023-02-12T13:29:05;101400.25;;;14.28;39.92
36788;BME280;22738;45.560;9.434;2023-02-12T13:35:56;101398.44;;;14.31;39.79
36788;BME280;22738;45.560;9.434;2023-02-12T13:49:47;101409.22;;;14.56;39.46
36788;BME280;22738;45.560;9.434;2023-02-12T13:56:50;101411.09;;;14.54;38.72
36788;BME280;22738;45.560;9.434;2023-02-12T14:03:35;101427.38;;;14.73;39.50
36788;BME280;22738;45.560;9.434;2023-02-12T14:38:00;101452.25;;;14.64;39.45
36788;BME280;22738;45.560;9.434;2023-02-12T14:44:45;101458.22;;;14.51;41.44
36788;BME280;22738;45.560;9.434;2023-02-12T14:51:50;101459.94;;;14.35;43.07
36788;BME280;22738;45.560;9.434;2023-02-12T14:58:34;101467.44;;;14.41;42.75
36788;BME280;22738;45.560;9.434;2023-02-12T15:05:39;101476.16;;;14.24;39.82
36788;BME280;22738;45.560;9.434;2023-02-12T15:12:29;101479.06;;;14.18;41.59
36788;BME280;22738;45.560;9.434;2023-02-12T15:19:24;101486.97;;;13.99;43.70
36788;BME280;22738;45.560;9.434;2023-02-12T15:26:13;101491.91;;;14.05;43.57
36788;BME280;22738;45.560;9.434;2023-02-12T15:32:57;101506.19;;;13.98;44.39
36788;BME280;22738;45.560;9.434;2023-02-12T15:39:42;101511.72;;;13.92;43.74
36788;BME280;22738;45.560;9.434;2023-02-12T15:46:24;101511.03;;;13.72;44.83
36788;BME280;22738;45.560;9.434;2023-02-12T15:53:05;101506.19;;;13.47;45.85
36788;BME280;22738;45.560;9.434;2023-02-12T15:59:52;101512.63;;;13.21;47.69
36788;BME280;22738;45.560;9.434;2023-02-12T16:06:34;101511.53;;;13.08;49.52
36788;BME280;22738;45.560;9.434;2023-02-12T16:13:30;101521.06;;;12.52;50.32
36788;BME280;22738;45.560;9.434;2023-02-12T16:27:16;101536.50;;;12.36;48.60
36788;BME280;22738;45.560;9.434;2023-02-12T16:33:58;101542.00;;;11.90;50.83
36788;BME280;22738;45.560;9.434;2023-02-12T16:40:41;101554.59;;;11.35;54.42
36788;BME280;22738;45.560;9.434;2023-02-12T16:47:48;101566.38;;;10.99;56.13
36788;BME280;22738;45.560;9.434;2023-02-12T16:54:32;101582.13;;;10.71;57.98
36788;BME280;22738;45.560;9.434;2023-02-12T17:01:20;101588.06;;;10.50;59.84
36788;BME280;22738;45.560;9.434;2023-02-12T17:08:16;101597.66;;;10.24;62.55
36788;BME280;22738;45.560;9.434;2023-02-12T17:15:03;101612.78;;;10.10;64.83
36788;BME280;22738;45.560;9.434;2023-02-12T17:21:46;101616.84;;;9.90;68.33
36788;BME280;22738;45.560;9.434;2023-02-12T17:28:31;101629.22;;;9.82;70.24
36788;BME280;22738;45.560;9.434;2023-02-12T17:35:14;101637.22;;;9.75;71.20
36788;BME280;22738;45.560;9.434;2023-02-12T17:41:56;101637.41;;;9.69;72.22
36788;BME280;22738;45.560;9.434;2023-02-12T17:48:39;101647.22;;;9.59;73.45
36788;BME280;22738;45.560;9.434;2023-02-12T17:55:22;101656.31;;;9.43;76.78
36788;BME280;22738;45.560;9.434;2023-02-12T18:02:04;101669.66;;;9.31;79.64
36788;BME280;22738;45.560;9.434;2023-02-12T18:08:45;101679.63;;;9.14;82.19
36788;BME280;22738;45.560;9.434;2023-02-12T18:15:27;101674.78;;;9.02;85.67
36788;BME280;22738;45.560;9.434;2023-02-12T18:22:08;101682.63;;;8.99;86.48
36788;BME280;22738;45.560;9.434;2023-02-12T18:28:51;101683.38;;;9.04;85.25
36788;BME280;22738;45.560;9.434;2023-02-12T18:35:33;101690.78;;;8.84;88.96
36788;BME280;22738;45.560;9.434;2023-02-12T18:42:16;101695.34;;;8.76;89.35
36788;BME280;22738;45.560;9.434;2023-02-12T18:48:58;101700.78;;;8.65;91.51
36788;BME280;22738;45.560;9.434;2023-02-12T18:55:48;101702.94;;;8.48;94.72
36788;BME280;22738;45.560;9.434;2023-02-12T19:02:30;101705.66;;;8.43;96.09
36788;BME280;22738;45.560;9.434;2023-02-12T19:09:13;101705.75;;;8.39;97.43
36788;BME280;22738;45.560;9.434;2023-02-12T19:15:56;101703.53;;;8.24;99.60
36788;BME280;22738;45.560;9.434;2023-02-12T19:22:37;101710.44;;;8.23;99.49
36788;BME280;22738;45.560;9.434;2023-02-12T19:29:19;101720.72;;;8.26;99.21
36788;BME280;22738;45.560;9.434;2023-02-12T19:36:00;101720.88;;;8.19;100.00
36788;BME280;22738;45.560;9.434;2023-02-12T19:42:41;101730.44;;;8.15;100.00
36788;BME280;22738;45.560;9.434;2023-02-12T19:49:25;101730.50;;;8.12;100.00
36788;BME280;22738;45.560;9.434;2023-02-12T19:56:07;101742.50;;;8.13;100.00
36788;BME280;22738;45.560;9.434;2023-02-12T20:02:50;101739.31;;;8.02;100.00
36788;BME280;22738;45.560;9.434;2023-02-12T20:09:32;101754.00;;;8.00;100.00
36788;BME280;22738;45.560;9.434;2023-02-12T20:16:16;101743.06;;;7.89;100.00
36788;BME280;22738;45.560;9.434;2023-02-12T20:23:00;101749.44;;;8.11;100.00
36788;BME280;22738;45.560;9.434;2023-02-12T20:29:45;101760.19;;;7.93;100.00
36788;BME280;22738;45.560;9.434;2023-02-12T20:36:29;101768.13;;;7.84;100.00
36788;BME280;22738;45.560;9.434;2023-02-12T20:43:11;101776.84;;;7.80;100.00
36788;BME280;22738;45.560;9.434;2023-02-12T20:49:53;101785.66;;;7.70;100.00
36788;BME280;22738;45.560;9.434;2023-02-12T20:56:35;101780.22;;;7.41;100.00
36788;BME280;22738;45.560;9.434;2023-02-12T21:03:17;101776.91;;;6.88;100.00
36788;BME280;22738;45.560;9.434;2023-02-12T21:09:58;101790.50;;;6.46;100.00
36788;BME280;22738;45.560;9.434;2023-02-12T21:16:40;101790.88;;;6.22;100.00
36788;BME280;22738;45.560;9.434;2023-02-12T21:23:21;101791.94;;;6.07;100.00
36788;BME280;22738;45.560;9.434;2023-02-12T21:30:04;101792.53;;;5.60;100.00
36788;BME280;22738;45.560;9.434;2023-02-12T21:36:48;101788.69;;;5.22;100.00
36788;BME280;22738;45.560;9.434;2023-02-12T21:43:29;101799.03;;;5.14;100.00
36788;BME280;22738;45.560;9.434;2023-02-12T21:50:10;101796.66;;;4.94;100.00
36788;BME280;22738;45.560;9.434;2023-02-12T21:56:55;101797.59;;;4.87;100.00
36788;BME280;22738;45.560;9.434;2023-02-12T22:03:36;101812.19;;;4.82;100.00
36788;BME280;22738;45.560;9.434;2023-02-12T22:10:17;101824.25;;;4.71;100.00
36788;BME280;22738;45.560;9.434;2023-02-12T22:17:00;101832.00;;;4.70;100.00
36788;BME280;22738;45.560;9.434;2023-02-12T22:23:41;101846.59;;;4.62;100.00
36788;BME280;22738;45.560;9.434;2023-02-12T22:30:23;101850.22;;;4.33;100.00
36788;BME280;22738;45.560;9.434;2023-02-12T22:37:04;101853.66;;;4.31;100.00
36788;BME280;22738;45.560;9.434;2023-02-12T22:43:45;101866.47;;;4.29;100.00
36788;BME280;22738;45.560;9.434;2023-02-12T22:50:26;101871.72;;;4.08;100.00
36788;BME280;22738;45.560;9.434;2023-02-12T22:57:07;101885.53;;;3.79;100.00
36788;BME280;22738;45.560;9.434;2023-02-12T23:03:48;101895.81;;;3.62;100.00
36788;BME280;22738;45.560;9.434;2023-02-12T23:10:30;101912.06;;;3.50;100.00
36788;BME280;22738;45.560;9.434;2023-02-12T23:17:11;101905.25;;;3.55;100.00
36788;BME280;22738;45.560;9.434;2023-02-12T23:23:53;101907.81;;;3.42;100.00
36788;BME280;22738;45.560;9.434;2023-02-12T23:30:34;101918.94;;;3.35;100.00
36788;BME280;22738;45.560;9.434;2023-02-12T23:37:16;101912.94;;;3.30;100.00
36788;BME280;22738;45.560;9.434;2023-02-12T23:43:57;101914.69;;;3.17;100.00
36788;BME280;22738;45.560;9.434;2023-02-12T23:50:39;101915.50;;;3.07;100.00
36788;BME280;22738;45.560;9.434;2023-02-12T23:57:20;101911.25;;;3.08;100.00
